Danielson, Connecticut
Current Conditions -  °F | °C
As of 12:52 PM on Saturday 22 Nov 2014 (Local Time) from KIJD Reporting Station
Clear Clear  
Wind Chill: 33°   Ceiling: Unl
Heat Index: 41°   Visibility: 10mi
Dew Point:   Wind: 14mph
Humidity: 25%   Direction: 210°SSW
Pressure: 30.27"   Gusts: NA
Location:  41.8°N, 71.89°W
Report Text: KIJD 221752Z AUTO 21012KT 10SM CLR 05/M14 A3027 RMK AO2 SLP253 T00501139 10050 21089 56043
Loading
Personal Weather Stations






























Interactive Weather Map New forecast layout! Learn more

10-Day Weather Forecast

Advertisements
Track Severe Weather on mobile